sensor_id;sensor_type;location;lat;lon;timestamp;P1;durP1;ratioP1;P2;durP2;ratioP2
14847;SDS011;7516;43.570;1.448;2023-09-18T00:01:52;3.90;;;2.15;;
14847;SDS011;7516;43.570;1.448;2023-09-18T00:04:20;5.65;;;2.40;;
14847;SDS011;7516;43.570;1.448;2023-09-18T00:06:47;4.50;;;2.30;;
14847;SDS011;7516;43.570;1.448;2023-09-18T00:09:15;6.35;;;2.30;;
14847;SDS011;7516;43.570;1.448;2023-09-18T00:11:42;4.57;;;2.40;;
14847;SDS011;7516;43.570;1.448;2023-09-18T00:14:10;6.07;;;2.20;;
14847;SDS011;7516;43.570;1.448;2023-09-18T00:16:37;5.75;;;2.70;;
14847;SDS011;7516;43.570;1.448;2023-09-18T00:19:06;5.93;;;2.25;;
14847;SDS011;7516;43.570;1.448;2023-09-18T00:21:34;7.05;;;2.60;;
14847;SDS011;7516;43.570;1.448;2023-09-18T00:24:01;6.18;;;2.65;;
14847;SDS011;7516;43.570;1.448;2023-09-18T00:26:29;3.67;;;2.33;;
14847;SDS011;7516;43.570;1.448;2023-09-18T00:28:57;5.57;;;2.70;;
14847;SDS011;7516;43.570;1.448;2023-09-18T00:31:24;4.13;;;2.60;;
14847;SDS011;7516;43.570;1.448;2023-09-18T00:33:52;4.80;;;2.63;;
14847;SDS011;7516;43.570;1.448;2023-09-18T00:36:21;5.70;;;2.55;;
14847;SDS011;7516;43.570;1.448;2023-09-18T00:38:48;3.95;;;2.35;;
14847;SDS011;7516;43.570;1.448;2023-09-18T00:41:16;4.75;;;2.30;;
14847;SDS011;7516;43.570;1.448;2023-09-18T00:43:43;5.15;;;2.42;;
14847;SDS011;7516;43.570;1.448;2023-09-18T00:46:11;5.50;;;2.72;;
14847;SDS011;7516;43.570;1.448;2023-09-18T00:48:38;7.35;;;2.47;;
14847;SDS011;7516;43.570;1.448;2023-09-18T00:51:06;5.43;;;2.35;;
14847;SDS011;7516;43.570;1.448;2023-09-18T00:53:36;3.25;;;2.33;;
14847;SDS011;7516;43.570;1.448;2023-09-18T00:56:04;4.57;;;2.15;;
14847;SDS011;7516;43.570;1.448;2023-09-18T00:58:32;5.93;;;2.53;;
14847;SDS011;7516;43.570;1.448;2023-09-18T01:01:00;5.75;;;2.55;;
14847;SDS011;7516;43.570;1.448;2023-09-18T01:03:28;5.15;;;2.50;;
14847;SDS011;7516;43.570;1.448;2023-09-18T01:05:56;3.90;;;2.10;;
14847;SDS011;7516;43.570;1.448;2023-09-18T01:08:25;5.95;;;2.35;;
14847;SDS011;7516;43.570;1.448;2023-09-18T01:10:56;6.10;;;2.33;;
14847;SDS011;7516;43.570;1.448;2023-09-18T01:13:32;5.50;;;2.50;;
14847;SDS011;7516;43.570;1.448;2023-09-18T01:16:07;5.25;;;2.75;;
14847;SDS011;7516;43.570;1.448;2023-09-18T01:18:48;6.13;;;2.47;;
14847;SDS011;7516;43.570;1.448;2023-09-18T01:21:16;5.35;;;2.47;;
14847;SDS011;7516;43.570;1.448;2023-09-18T01:23:46;3.10;;;2.33;;
14847;SDS011;7516;43.570;1.448;2023-09-18T01:26:14;7.32;;;2.33;;
14847;SDS011;7516;43.570;1.448;2023-09-18T01:28:41;4.05;;;2.28;;
14847;SDS011;7516;43.570;1.448;2023-09-18T01:31:09;4.10;;;2.67;;
14847;SDS011;7516;43.570;1.448;2023-09-18T01:33:36;7.40;;;2.45;;
14847;SDS011;7516;43.570;1.448;2023-09-18T01:36:04;4.97;;;2.20;;
14847;SDS011;7516;43.570;1.448;2023-09-18T01:38:35;4.13;;;2.28;;
14847;SDS011;7516;43.570;1.448;2023-09-18T01:41:04;8.18;;;2.60;;
14847;SDS011;7516;43.570;1.448;2023-09-18T01:43:32;5.22;;;2.50;;
14847;SDS011;7516;43.570;1.448;2023-09-18T01:46:00;4.30;;;2.78;;
14847;SDS011;7516;43.570;1.448;2023-09-18T01:48:28;4.63;;;2.50;;
14847;SDS011;7516;43.570;1.448;2023-09-18T01:50:56;3.88;;;2.30;;
14847;SDS011;7516;43.570;1.448;2023-09-18T01:53:23;4.20;;;2.30;;
14847;SDS011;7516;43.570;1.448;2023-09-18T01:55:51;5.35;;;2.70;;
14847;SDS011;7516;43.570;1.448;2023-09-18T01:58:20;3.80;;;2.40;;
14847;SDS011;7516;43.570;1.448;2023-09-18T02:00:47;5.22;;;2.22;;
14847;SDS011;7516;43.570;1.448;2023-09-18T02:03:15;3.22;;;2.03;;
14847;SDS011;7516;43.570;1.448;2023-09-18T02:05:43;6.43;;;2.38;;
14847;SDS011;7516;43.570;1.448;2023-09-18T02:08:10;4.63;;;2.20;;
14847;SDS011;7516;43.570;1.448;2023-09-18T02:10:38;3.72;;;2.33;;
14847;SDS011;7516;43.570;1.448;2023-09-18T02:13:05;4.78;;;2.65;;
14847;SDS011;7516;43.570;1.448;2023-09-18T02:15:35;4.28;;;2.20;;
14847;SDS011;7516;43.570;1.448;2023-09-18T02:18:04;4.28;;;2.22;;
14847;SDS011;7516;43.570;1.448;2023-09-18T02:20:31;5.18;;;2.67;;
14847;SDS011;7516;43.570;1.448;2023-09-18T02:23:06;5.50;;;2.25;;
14847;SDS011;7516;43.570;1.448;2023-09-18T02:25:34;3.95;;;1.90;;
14847;SDS011;7516;43.570;1.448;2023-09-18T02:28:02;5.88;;;2.45;;
14847;SDS011;7516;43.570;1.448;2023-09-18T02:30:30;3.60;;;2.42;;
14847;SDS011;7516;43.570;1.448;2023-09-18T02:32:58;5.32;;;2.50;;
14847;SDS011;7516;43.570;1.448;2023-09-18T02:35:28;6.55;;;2.80;;
14847;SDS011;7516;43.570;1.448;2023-09-18T02:37:55;7.25;;;2.78;;
14847;SDS011;7516;43.570;1.448;2023-09-18T02:40:25;4.40;;;2.33;;
14847;SDS011;7516;43.570;1.448;2023-09-18T02:42:52;3.95;;;2.30;;
14847;SDS011;7516;43.570;1.448;2023-09-18T02:45:19;7.25;;;2.92;;
14847;SDS011;7516;43.570;1.448;2023-09-18T02:47:47;5.75;;;2.30;;
14847;SDS011;7516;43.570;1.448;2023-09-18T02:50:16;5.22;;;2.20;;
14847;SDS011;7516;43.570;1.448;2023-09-18T02:52:43;5.55;;;2.58;;
14847;SDS011;7516;43.570;1.448;2023-09-18T02:55:11;4.40;;;1.50;;
14847;SDS011;7516;43.570;1.448;2023-09-18T02:57:38;5.35;;;1.40;;
14847;SDS011;7516;43.570;1.448;2023-09-18T03:00:06;4.07;;;1.50;;
14847;SDS011;7516;43.570;1.448;2023-09-18T03:02:34;3.85;;;1.85;;
14847;SDS011;7516;43.570;1.448;2023-09-18T03:05:02;4.05;;;2.42;;
14847;SDS011;7516;43.570;1.448;2023-09-18T03:07:31;6.10;;;2.40;;
14847;SDS011;7516;43.570;1.448;2023-09-18T03:09:59;4.85;;;2.30;;
14847;SDS011;7516;43.570;1.448;2023-09-18T03:12:27;5.78;;;2.60;;
14847;SDS011;7516;43.570;1.448;2023-09-18T03:14:54;6.05;;;2.15;;
14847;SDS011;7516;43.570;1.448;2023-09-18T03:17:22;6.90;;;2.60;;
14847;SDS011;7516;43.570;1.448;2023-09-18T03:19:49;5.20;;;2.05;;
14847;SDS011;7516;43.570;1.448;2023-09-18T03:22:17;8.65;;;2.03;;
14847;SDS011;7516;43.570;1.448;2023-09-18T03:24:45;5.13;;;2.30;;
14847;SDS011;7516;43.570;1.448;2023-09-18T03:27:13;6.18;;;2.35;;
14847;SDS011;7516;43.570;1.448;2023-09-18T03:29:41;5.78;;;2.72;;
14847;SDS011;7516;43.570;1.448;2023-09-18T03:32:08;5.22;;;2.85;;
14847;SDS011;7516;43.570;1.448;2023-09-18T03:34:37;7.65;;;2.70;;
14847;SDS011;7516;43.570;1.448;2023-09-18T03:37:05;6.05;;;2.42;;
14847;SDS011;7516;43.570;1.448;2023-09-18T03:39:32;7.80;;;2.60;;
14847;SDS011;7516;43.570;1.448;2023-09-18T03:42:01;7.53;;;2.88;;
14847;SDS011;7516;43.570;1.448;2023-09-18T03:44:29;2.83;;;2.05;;
14847;SDS011;7516;43.570;1.448;2023-09-18T03:46:58;4.50;;;2.70;;
14847;SDS011;7516;43.570;1.448;2023-09-18T03:49:27;5.88;;;2.40;;
14847;SDS011;7516;43.570;1.448;2023-09-18T03:51:54;3.58;;;2.60;;
14847;SDS011;7516;43.570;1.448;2023-09-18T03:54:22;5.20;;;2.35;;
14847;SDS011;7516;43.570;1.448;2023-09-18T03:56:49;5.00;;;2.45;;
14847;SDS011;7516;43.570;1.448;2023-09-18T03:59:18;6.00;;;2.63;;
14847;SDS011;7516;43.570;1.448;2023-09-18T04:01:45;3.97;;;2.60;;
14847;SDS011;7516;43.570;1.448;2023-09-18T04:04:13;6.30;;;2.97;;
14847;SDS011;7516;43.570;1.448;2023-09-18T04:06:41;5.30;;;3.10;;
14847;SDS011;7516;43.570;1.448;2023-09-18T04:09:11;3.58;;;2.70;;
14847;SDS011;7516;43.570;1.448;2023-09-18T04:11:43;5.15;;;2.67;;
14847;SDS011;7516;43.570;1.448;2023-09-18T04:14:10;4.43;;;2.80;;
14847;SDS011;7516;43.570;1.448;2023-09-18T04:16:39;5.65;;;2.65;;
14847;SDS011;7516;43.570;1.448;2023-09-18T04:19:08;3.80;;;2.65;;
14847;SDS011;7516;43.570;1.448;2023-09-18T04:21:35;6.03;;;2.33;;
14847;SDS011;7516;43.570;1.448;2023-09-18T04:24:03;6.22;;;2.55;;
14847;SDS011;7516;43.570;1.448;2023-09-18T04:26:31;4.72;;;2.70;;
14847;SDS011;7516;43.570;1.448;2023-09-18T04:28:59;6.13;;;2.55;;
14847;SDS011;7516;43.570;1.448;2023-09-18T04:31:26;7.03;;;2.70;;
14847;SDS011;7516;43.570;1.448;2023-09-18T04:33:56;9.02;;;2.67;;
14847;SDS011;7516;43.570;1.448;2023-09-18T04:36:23;7.13;;;2.70;;
14847;SDS011;7516;43.570;1.448;2023-09-18T04:38:51;5.80;;;3.05;;
14847;SDS011;7516;43.570;1.448;2023-09-18T04:41:19;5.80;;;2.63;;
14847;SDS011;7516;43.570;1.448;2023-09-18T04:43:46;7.55;;;3.30;;
14847;SDS011;7516;43.570;1.448;2023-09-18T04:46:14;8.45;;;2.90;;
14847;SDS011;7516;43.570;1.448;2023-09-18T04:48:41;7.32;;;2.88;;
14847;SDS011;7516;43.570;1.448;2023-09-18T04:51:10;6.38;;;2.90;;
14847;SDS011;7516;43.570;1.448;2023-09-18T04:53:38;5.57;;;3.15;;
14847;SDS011;7516;43.570;1.448;2023-09-18T04:56:06;9.18;;;3.28;;
14847;SDS011;7516;43.570;1.448;2023-09-18T04:58:35;8.73;;;3.08;;
14847;SDS011;7516;43.570;1.448;2023-09-18T05:01:03;6.25;;;2.60;;
14847;SDS011;7516;43.570;1.448;2023-09-18T05:03:33;9.18;;;2.55;;
14847;SDS011;7516;43.570;1.448;2023-09-18T05:06:01;8.20;;;2.80;;
14847;SDS011;7516;43.570;1.448;2023-09-18T05:08:30;6.85;;;2.70;;
14847;SDS011;7516;43.570;1.448;2023-09-18T05:10:58;4.45;;;2.70;;
14847;SDS011;7516;43.570;1.448;2023-09-18T05:13:25;5.72;;;2.72;;
14847;SDS011;7516;43.570;1.448;2023-09-18T05:15:53;10.20;;;3.00;;
14847;SDS011;7516;43.570;1.448;2023-09-18T05:18:21;8.82;;;3.78;;
14847;SDS011;7516;43.570;1.448;2023-09-18T05:20:48;6.75;;;3.28;;
14847;SDS011;7516;43.570;1.448;2023-09-18T05:23:16;5.43;;;2.97;;
14847;SDS011;7516;43.570;1.448;2023-09-18T05:25:46;6.18;;;2.90;;
14847;SDS011;7516;43.570;1.448;2023-09-18T05:28:13;7.13;;;2.70;;
14847;SDS011;7516;43.570;1.448;2023-09-18T05:30:41;8.45;;;3.10;;
14847;SDS011;7516;43.570;1.448;2023-09-18T05:33:08;6.22;;;3.33;;
14847;SDS011;7516;43.570;1.448;2023-09-18T05:35:36;7.28;;;3.60;;
14847;SDS011;7516;43.570;1.448;2023-09-18T05:38:07;9.05;;;3.33;;
14847;SDS011;7516;43.570;1.448;2023-09-18T05:40:36;8.82;;;3.80;;
14847;SDS011;7516;43.570;1.448;2023-09-18T05:43:05;13.05;;;4.18;;
14847;SDS011;7516;43.570;1.448;2023-09-18T05:45:33;12.43;;;4.95;;
14847;SDS011;7516;43.570;1.448;2023-09-18T05:48:01;14.60;;;5.85;;
14847;SDS011;7516;43.570;1.448;2023-09-18T05:50:28;16.15;;;6.70;;
14847;SDS011;7516;43.570;1.448;2023-09-18T05:52:56;12.57;;;6.30;;
14847;SDS011;7516;43.570;1.448;2023-09-18T05:55:25;7.10;;;5.03;;
14847;SDS011;7516;43.570;1.448;2023-09-18T05:57:53;12.55;;;5.80;;
14847;SDS011;7516;43.570;1.448;2023-09-18T06:00:23;11.38;;;5.78;;
14847;SDS011;7516;43.570;1.448;2023-09-18T06:02:51;9.63;;;5.22;;
14847;SDS011;7516;43.570;1.448;2023-09-18T06:05:18;9.02;;;5.07;;
14847;SDS011;7516;43.570;1.448;2023-09-18T06:07:47;10.38;;;5.70;;
14847;SDS011;7516;43.570;1.448;2023-09-18T06:10:15;7.95;;;5.13;;
14847;SDS011;7516;43.570;1.448;2023-09-18T06:12:43;7.93;;;4.88;;
14847;SDS011;7516;43.570;1.448;2023-09-18T06:15:11;12.07;;;5.72;;
14847;SDS011;7516;43.570;1.448;2023-09-18T06:17:41;8.30;;;5.55;;
14847;SDS011;7516;43.570;1.448;2023-09-18T06:20:09;10.52;;;5.38;;
14847;SDS011;7516;43.570;1.448;2023-09-18T06:22:39;10.05;;;5.57;;
14847;SDS011;7516;43.570;1.448;2023-09-18T06:25:07;10.00;;;5.35;;
14847;SDS011;7516;43.570;1.448;2023-09-18T06:27:35;8.80;;;5.50;;
14847;SDS011;7516;43.570;1.448;2023-09-18T06:30:04;8.43;;;5.47;;
14847;SDS011;7516;43.570;1.448;2023-09-18T06:32:32;9.05;;;5.38;;
14847;SDS011;7516;43.570;1.448;2023-09-18T06:35:03;9.88;;;5.25;;
14847;SDS011;7516;43.570;1.448;2023-09-18T06:37:31;9.88;;;5.45;;
14847;SDS011;7516;43.570;1.448;2023-09-18T06:39:59;13.45;;;6.18;;
14847;SDS011;7516;43.570;1.448;2023-09-18T06:42:29;10.50;;;5.80;;
14847;SDS011;7516;43.570;1.448;2023-09-18T06:44:56;10.52;;;5.95;;
14847;SDS011;7516;43.570;1.448;2023-09-18T06:47:24;11.55;;;6.60;;
14847;SDS011;7516;43.570;1.448;2023-09-18T06:49:54;10.65;;;6.03;;
14847;SDS011;7516;43.570;1.448;2023-09-18T06:52:24;9.80;;;5.75;;
14847;SDS011;7516;43.570;1.448;2023-09-18T06:54:54;12.20;;;6.57;;
14847;SDS011;7516;43.570;1.448;2023-09-18T06:57:23;10.98;;;6.70;;
14847;SDS011;7516;43.570;1.448;2023-09-18T06:59:50;10.48;;;6.03;;
14847;SDS011;7516;43.570;1.448;2023-09-18T07:02:21;9.13;;;6.20;;
14847;SDS011;7516;43.570;1.448;2023-09-18T07:04:49;12.52;;;6.47;;
14847;SDS011;7516;43.570;1.448;2023-09-18T07:07:16;9.80;;;6.38;;
14847;SDS011;7516;43.570;1.448;2023-09-18T07:09:51;10.88;;;7.15;;
14847;SDS011;7516;43.570;1.448;2023-09-18T07:12:19;10.85;;;7.10;;
14847;SDS011;7516;43.570;1.448;2023-09-18T07:14:47;13.05;;;7.68;;
14847;SDS011;7516;43.570;1.448;2023-09-18T07:17:15;12.27;;;8.07;;
14847;SDS011;7516;43.570;1.448;2023-09-18T07:19:43;12.15;;;7.25;;
14847;SDS011;7516;43.570;1.448;2023-09-18T07:22:11;14.15;;;8.25;;
14847;SDS011;7516;43.570;1.448;2023-09-18T07:24:39;14.30;;;8.93;;
14847;SDS011;7516;43.570;1.448;2023-09-18T07:27:09;14.23;;;8.45;;
14847;SDS011;7516;43.570;1.448;2023-09-18T07:29:36;14.80;;;7.90;;
14847;SDS011;7516;43.570;1.448;2023-09-18T07:32:04;12.32;;;7.85;;
14847;SDS011;7516;43.570;1.448;2023-09-18T07:34:32;15.68;;;8.10;;
14847;SDS011;7516;43.570;1.448;2023-09-18T07:37:00;11.52;;;7.65;;
14847;SDS011;7516;43.570;1.448;2023-09-18T07:39:27;9.88;;;7.70;;
14847;SDS011;7516;43.570;1.448;2023-09-18T07:41:55;13.80;;;9.40;;
14847;SDS011;7516;43.570;1.448;2023-09-18T07:44:23;10.52;;;8.32;;
14847;SDS011;7516;43.570;1.448;2023-09-18T07:46:51;11.52;;;8.05;;
14847;SDS011;7516;43.570;1.448;2023-09-18T07:49:19;12.13;;;9.40;;
14847;SDS011;7516;43.570;1.448;2023-09-18T07:51:47;16.42;;;8.88;;
14847;SDS011;7516;43.570;1.448;2023-09-18T07:54:14;14.63;;;8.70;;
14847;SDS011;7516;43.570;1.448;2023-09-18T07:56:42;14.88;;;8.60;;
14847;SDS011;7516;43.570;1.448;2023-09-18T07:59:09;12.05;;;8.77;;
14847;SDS011;7516;43.570;1.448;2023-09-18T08:01:41;14.65;;;9.80;;
14847;SDS011;7516;43.570;1.448;2023-09-18T08:04:08;14.90;;;10.00;;
14847;SDS011;7516;43.570;1.448;2023-09-18T08:06:36;16.40;;;10.18;;
14847;SDS011;7516;43.570;1.448;2023-09-18T08:09:06;19.30;;;11.35;;
14847;SDS011;7516;43.570;1.448;2023-09-18T08:11:34;15.05;;;9.70;;
14847;SDS011;7516;43.570;1.448;2023-09-18T08:14:06;18.23;;;9.32;;
14847;SDS011;7516;43.570;1.448;2023-09-18T08:16:34;15.98;;;9.52;;
14847;SDS011;7516;43.570;1.448;2023-09-18T08:19:05;15.63;;;9.75;;
14847;SDS011;7516;43.570;1.448;2023-09-18T08:21:32;17.70;;;9.98;;
14847;SDS011;7516;43.570;1.448;2023-09-18T08:24:00;16.63;;;9.35;;
14847;SDS011;7516;43.570;1.448;2023-09-18T08:26:28;15.32;;;8.45;;
14847;SDS011;7516;43.570;1.448;2023-09-18T08:28:55;14.73;;;8.57;;
14847;SDS011;7516;43.570;1.448;2023-09-18T08:31:22;13.75;;;8.50;;
14847;SDS011;7516;43.570;1.448;2023-09-18T08:33:52;12.90;;;8.45;;
14847;SDS011;7516;43.570;1.448;2023-09-18T08:36:21;13.38;;;8.25;;
14847;SDS011;7516;43.570;1.448;2023-09-18T08:38:49;16.27;;;9.00;;
14847;SDS011;7516;43.570;1.448;2023-09-18T08:41:18;15.40;;;9.13;;
14847;SDS011;7516;43.570;1.448;2023-09-18T08:43:46;14.77;;;8.73;;
14847;SDS011;7516;43.570;1.448;2023-09-18T08:46:15;14.10;;;8.20;;
14847;SDS011;7516;43.570;1.448;2023-09-18T08:48:43;12.82;;;7.63;;
14847;SDS011;7516;43.570;1.448;2023-09-18T08:51:12;15.23;;;8.63;;
14847;SDS011;7516;43.570;1.448;2023-09-18T08:53:41;15.18;;;8.25;;
14847;SDS011;7516;43.570;1.448;2023-09-18T08:56:09;14.68;;;8.93;;
14847;SDS011;7516;43.570;1.448;2023-09-18T08:58:39;13.63;;;7.47;;
14847;SDS011;7516;43.570;1.448;2023-09-18T09:01:08;20.10;;;10.02;;
14847;SDS011;7516;43.570;1.448;2023-09-18T09:03:36;13.85;;;8.40;;
14847;SDS011;7516;43.570;1.448;2023-09-18T09:06:04;17.33;;;8.60;;
14847;SDS011;7516;43.570;1.448;2023-09-18T09:08:32;20.35;;;9.50;;
14847;SDS011;7516;43.570;1.448;2023-09-18T09:11:02;16.58;;;8.68;;
14847;SDS011;7516;43.570;1.448;2023-09-18T09:13:30;16.00;;;7.88;;
14847;SDS011;7516;43.570;1.448;2023-09-18T09:15:58;15.02;;;7.90;;
14847;SDS011;7516;43.570;1.448;2023-09-18T09:18:27;16.55;;;8.77;;
14847;SDS011;7516;43.570;1.448;2023-09-18T09:20:57;16.73;;;8.55;;
14847;SDS011;7516;43.570;1.448;2023-09-18T09:23:27;15.57;;;8.60;;
14847;SDS011;7516;43.570;1.448;2023-09-18T09:26:11;13.57;;;7.32;;
14847;SDS011;7516;43.570;1.448;2023-09-18T09:28:42;15.32;;;6.50;;
14847;SDS011;7516;43.570;1.448;2023-09-18T09:31:10;11.35;;;6.70;;
14847;SDS011;7516;43.570;1.448;2023-09-18T09:33:50;16.83;;;7.47;;
14847;SDS011;7516;43.570;1.448;2023-09-18T09:36:19;16.38;;;7.43;;
14847;SDS011;7516;43.570;1.448;2023-09-18T09:38:46;15.48;;;7.35;;
14847;SDS011;7516;43.570;1.448;2023-09-18T09:41:18;15.93;;;7.88;;
14847;SDS011;7516;43.570;1.448;2023-09-18T09:43:45;14.95;;;7.72;;
14847;SDS011;7516;43.570;1.448;2023-09-18T09:46:15;16.08;;;7.88;;
14847;SDS011;7516;43.570;1.448;2023-09-18T09:48:57;15.10;;;7.78;;
14847;SDS011;7516;43.570;1.448;2023-09-18T09:51:26;14.45;;;7.22;;
14847;SDS011;7516;43.570;1.448;2023-09-18T09:53:54;15.10;;;6.70;;
14847;SDS011;7516;43.570;1.448;2023-09-18T09:59:19;11.75;;;6.53;;
14847;SDS011;7516;43.570;1.448;2023-09-18T10:01:47;17.70;;;6.90;;
14847;SDS011;7516;43.570;1.448;2023-09-18T10:04:15;11.63;;;5.95;;
14847;SDS011;7516;43.570;1.448;2023-09-18T10:06:45;12.57;;;6.60;;
14847;SDS011;7516;43.570;1.448;2023-09-18T10:09:20;8.90;;;5.15;;
14847;SDS011;7516;43.570;1.448;2023-09-18T10:11:51;14.10;;;5.60;;
14847;SDS011;7516;43.570;1.448;2023-09-18T10:14:25;13.57;;;5.47;;
14847;SDS011;7516;43.570;1.448;2023-09-18T10:16:59;11.43;;;5.38;;
14847;SDS011;7516;43.570;1.448;2023-09-18T10:19:38;11.90;;;4.80;;
14847;SDS011;7516;43.570;1.448;2023-09-18T10:22:12;8.75;;;4.47;;
14847;SDS011;7516;43.570;1.448;2023-09-18T10:24:47;8.10;;;4.75;;
14847;SDS011;7516;43.570;1.448;2023-09-18T10:27:22;8.30;;;4.90;;
14847;SDS011;7516;43.570;1.448;2023-09-18T10:29:52;10.02;;;4.20;;
14847;SDS011;7516;43.570;1.448;2023-09-18T10:32:21;11.32;;;4.53;;
14847;SDS011;7516;43.570;1.448;2023-09-18T10:34:53;7.75;;;4.10;;
14847;SDS011;7516;43.570;1.448;2023-09-18T10:37:21;9.85;;;4.60;;
14847;SDS011;7516;43.570;1.448;2023-09-18T10:39:49;7.93;;;3.95;;
14847;SDS011;7516;43.570;1.448;2023-09-18T10:42:19;9.00;;;4.25;;
14847;SDS011;7516;43.570;1.448;2023-09-18T10:44:49;7.95;;;4.75;;
14847;SDS011;7516;43.570;1.448;2023-09-18T10:47:18;8.05;;;4.05;;
14847;SDS011;7516;43.570;1.448;2023-09-18T10:49:46;4.70;;;3.00;;
14847;SDS011;7516;43.570;1.448;2023-09-18T10:52:15;10.20;;;4.57;;
14847;SDS011;7516;43.570;1.448;2023-09-18T10:54:43;8.55;;;4.05;;
14847;SDS011;7516;43.570;1.448;2023-09-18T10:57:11;14.40;;;4.88;;
14847;SDS011;7516;43.570;1.448;2023-09-18T10:59:43;7.63;;;3.97;;
14847;SDS011;7516;43.570;1.448;2023-09-18T11:02:13;5.78;;;3.25;;
14847;SDS011;7516;43.570;1.448;2023-09-18T11:04:43;8.07;;;3.30;;
14847;SDS011;7516;43.570;1.448;2023-09-18T11:07:19;6.95;;;3.17;;
14847;SDS011;7516;43.570;1.448;2023-09-18T11:09:48;5.03;;;2.78;;
14847;SDS011;7516;43.570;1.448;2023-09-18T11:12:16;4.20;;;2.60;;
14847;SDS011;7516;43.570;1.448;2023-09-18T11:14:44;5.35;;;2.55;;
14847;SDS011;7516;43.570;1.448;2023-09-18T11:20:25;5.10;;;2.38;;
14847;SDS011;7516;43.570;1.448;2023-09-18T11:22:55;3.75;;;2.60;;
14847;SDS011;7516;43.570;1.448;2023-09-18T11:25:31;3.80;;;2.78;;
14847;SDS011;7516;43.570;1.448;2023-09-18T11:28:02;6.13;;;2.92;;
14847;SDS011;7516;43.570;1.448;2023-09-18T11:30:32;4.05;;;2.65;;
14847;SDS011;7516;43.570;1.448;2023-09-18T11:33:02;6.43;;;3.17;;
14847;SDS011;7516;43.570;1.448;2023-09-18T11:35:32;7.95;;;3.00;;
14847;SDS011;7516;43.570;1.448;2023-09-18T11:38:03;6.82;;;2.92;;
14847;SDS011;7516;43.570;1.448;2023-09-18T11:40:32;7.05;;;2.75;;
14847;SDS011;7516;43.570;1.448;2023-09-18T11:43:19;6.10;;;2.72;;
14847;SDS011;7516;43.570;1.448;2023-09-18T11:45:52;6.55;;;3.20;;
14847;SDS011;7516;43.570;1.448;2023-09-18T11:48:21;4.82;;;2.83;;
14847;SDS011;7516;43.570;1.448;2023-09-18T11:50:54;5.50;;;2.83;;
14847;SDS011;7516;43.570;1.448;2023-09-18T11:53:24;5.43;;;3.20;;
14847;SDS011;7516;43.570;1.448;2023-09-18T11:55:53;4.28;;;2.50;;
14847;SDS011;7516;43.570;1.448;2023-09-18T11:58:21;6.00;;;3.08;;
14847;SDS011;7516;43.570;1.448;2023-09-18T12:00:49;5.45;;;2.90;;
14847;SDS011;7516;43.570;1.448;2023-09-18T12:03:17;4.80;;;2.70;;
14847;SDS011;7516;43.570;1.448;2023-09-18T12:05:51;5.15;;;2.30;;
14847;SDS011;7516;43.570;1.448;2023-09-18T12:08:23;4.80;;;2.47;;
14847;SDS011;7516;43.570;1.448;2023-09-18T12:10:52;4.78;;;2.40;;
14847;SDS011;7516;43.570;1.448;2023-09-18T12:13:21;4.68;;;2.30;;
14847;SDS011;7516;43.570;1.448;2023-09-18T12:15:52;4.40;;;2.30;;
14847;SDS011;7516;43.570;1.448;2023-09-18T12:18:24;4.35;;;2.15;;
14847;SDS011;7516;43.570;1.448;2023-09-18T12:20:55;4.97;;;2.30;;
14847;SDS011;7516;43.570;1.448;2023-09-18T12:23:24;4.40;;;2.28;;
14847;SDS011;7516;43.570;1.448;2023-09-18T12:25:56;5.53;;;2.20;;
14847;SDS011;7516;43.570;1.448;2023-09-18T12:28:26;5.85;;;3.22;;
14847;SDS011;7516;43.570;1.448;2023-09-18T12:30:54;4.40;;;2.60;;
14847;SDS011;7516;43.570;1.448;2023-09-18T12:33:23;4.47;;;2.92;;
14847;SDS011;7516;43.570;1.448;2023-09-18T12:35:51;4.55;;;2.60;;
14847;SDS011;7516;43.570;1.448;2023-09-18T12:38:22;5.10;;;2.50;;
14847;SDS011;7516;43.570;1.448;2023-09-18T12:40:52;5.95;;;2.60;;
14847;SDS011;7516;43.570;1.448;2023-09-18T12:43:20;5.10;;;2.60;;
14847;SDS011;7516;43.570;1.448;2023-09-18T12:45:49;5.82;;;3.10;;
14847;SDS011;7516;43.570;1.448;2023-09-18T12:48:18;6.18;;;2.80;;
14847;SDS011;7516;43.570;1.448;2023-09-18T12:50:45;4.43;;;2.80;;
14847;SDS011;7516;43.570;1.448;2023-09-18T12:53:21;4.95;;;2.67;;
14847;SDS011;7516;43.570;1.448;2023-09-18T12:55:49;5.93;;;3.03;;
14847;SDS011;7516;43.570;1.448;2023-09-18T12:58:18;7.05;;;3.33;;
14847;SDS011;7516;43.570;1.448;2023-09-18T13:00:46;5.55;;;2.90;;
14847;SDS011;7516;43.570;1.448;2023-09-18T13:03:16;5.20;;;3.00;;
14847;SDS011;7516;43.570;1.448;2023-09-18T13:05:44;8.73;;;3.25;;
14847;SDS011;7516;43.570;1.448;2023-09-18T13:08:13;5.07;;;2.88;;
14847;SDS011;7516;43.570;1.448;2023-09-18T13:10:44;7.78;;;3.17;;
14847;SDS011;7516;43.570;1.448;2023-09-18T13:13:16;6.82;;;3.05;;
14847;SDS011;7516;43.570;1.448;2023-09-18T13:15:44;6.22;;;3.17;;
14847;SDS011;7516;43.570;1.448;2023-09-18T13:18:13;9.63;;;3.70;;
14847;SDS011;7516;43.570;1.448;2023-09-18T13:20:41;7.85;;;3.47;;
14847;SDS011;7516;43.570;1.448;2023-09-18T13:23:10;8.02;;;3.58;;
14847;SDS011;7516;43.570;1.448;2023-09-18T13:25:38;4.53;;;2.83;;
14847;SDS011;7516;43.570;1.448;2023-09-18T13:28:10;7.82;;;3.38;;
14847;SDS011;7516;43.570;1.448;2023-09-18T13:30:39;5.85;;;2.90;;
14847;SDS011;7516;43.570;1.448;2023-09-18T13:33:09;7.43;;;3.28;;
14847;SDS011;7516;43.570;1.448;2023-09-18T13:35:37;4.95;;;2.55;;
14847;SDS011;7516;43.570;1.448;2023-09-18T13:38:06;4.55;;;2.50;;
14847;SDS011;7516;43.570;1.448;2023-09-18T13:40:36;5.53;;;2.25;;
14847;SDS011;7516;43.570;1.448;2023-09-18T13:43:03;5.70;;;2.55;;
14847;SDS011;7516;43.570;1.448;2023-09-18T13:45:34;5.97;;;2.10;;
14847;SDS011;7516;43.570;1.448;2023-09-18T13:48:02;3.65;;;2.00;;
14847;SDS011;7516;43.570;1.448;2023-09-18T13:50:29;2.20;;;1.58;;
14847;SDS011;7516;43.570;1.448;2023-09-18T13:52:57;3.15;;;2.00;;
14847;SDS011;7516;43.570;1.448;2023-09-18T13:55:25;3.35;;;1.80;;
14847;SDS011;7516;43.570;1.448;2023-09-18T13:57:53;4.15;;;2.00;;
14847;SDS011;7516;43.570;1.448;2023-09-18T14:00:21;4.10;;;2.03;;
14847;SDS011;7516;43.570;1.448;2023-09-18T14:02:52;2.47;;;2.10;;
14847;SDS011;7516;43.570;1.448;2023-09-18T14:05:19;3.25;;;1.77;;
14847;SDS011;7516;43.570;1.448;2023-09-18T14:07:47;3.90;;;2.15;;
14847;SDS011;7516;43.570;1.448;2023-09-18T14:10:14;4.05;;;1.80;;
14847;SDS011;7516;43.570;1.448;2023-09-18T14:12:43;4.13;;;1.80;;
14847;SDS011;7516;43.570;1.448;2023-09-18T14:15:11;4.95;;;1.98;;
14847;SDS011;7516;43.570;1.448;2023-09-18T14:17:41;6.30;;;2.00;;
14847;SDS011;7516;43.570;1.448;2023-09-18T14:20:10;4.72;;;1.90;;
14847;SDS011;7516;43.570;1.448;2023-09-18T14:22:38;3.50;;;1.90;;
14847;SDS011;7516;43.570;1.448;2023-09-18T14:25:06;3.88;;;1.98;;
14847;SDS011;7516;43.570;1.448;2023-09-18T14:27:34;3.42;;;1.77;;
14847;SDS011;7516;43.570;1.448;2023-09-18T14:30:02;6.90;;;1.98;;
14847;SDS011;7516;43.570;1.448;2023-09-18T14:32:31;2.97;;;2.00;;
14847;SDS011;7516;43.570;1.448;2023-09-18T14:35:01;2.50;;;1.50;;
14847;SDS011;7516;43.570;1.448;2023-09-18T14:37:31;2.03;;;1.20;;
14847;SDS011;7516;43.570;1.448;2023-09-18T14:39:59;2.28;;;1.50;;
14847;SDS011;7516;43.570;1.448;2023-09-18T14:42:27;2.78;;;1.25;;
14847;SDS011;7516;43.570;1.448;2023-09-18T14:44:55;3.55;;;1.27;;
14847;SDS011;7516;43.570;1.448;2023-09-18T14:47:23;1.48;;;1.00;;
14847;SDS011;7516;43.570;1.448;2023-09-18T14:49:50;1.13;;;0.90;;
14847;SDS011;7516;43.570;1.448;2023-09-18T14:52:18;2.35;;;1.00;;
14847;SDS011;7516;43.570;1.448;2023-09-18T14:54:50;2.95;;;1.05;;
14847;SDS011;7516;43.570;1.448;2023-09-18T14:57:17;2.95;;;1.02;;
14847;SDS011;7516;43.570;1.448;2023-09-18T14:59:45;1.88;;;1.02;;
14847;SDS011;7516;43.570;1.448;2023-09-18T15:02:13;2.10;;;0.95;;
14847;SDS011;7516;43.570;1.448;2023-09-18T15:04:42;2.17;;;0.93;;
14847;SDS011;7516;43.570;1.448;2023-09-18T15:07:10;1.90;;;0.90;;
14847;SDS011;7516;43.570;1.448;2023-09-18T15:09:38;1.73;;;0.93;;
14847;SDS011;7516;43.570;1.448;2023-09-18T15:12:07;1.60;;;0.80;;
14847;SDS011;7516;43.570;1.448;2023-09-18T15:14:36;1.52;;;0.93;;